Time;durP1;ratioP1;P1;durP2;ratioP2;P2;SDS_P1;SDS_P2;PMS_P1;PMS_P2;Temp;Humidity;BMP_temperature;BMP_pressure;BME280_temperature;BME280_humidity;BME280_pressure;Samples;Min_cycle;Max_cycle;Signal;HPM_P1;HPM_P2
2023/01/08 00:01:55;;;;;;;9.55;4.10;;;;;;;4.19;100.00;98506.22;5071308;28;20047;-80
2023/01/08 00:04:23;;;;;;;6.93;4.18;;;;;;;4.10;100.00;98493.75;5072125;28;20047;-80
2023/01/08 00:06:49;;;;;;;8.48;5.15;;;;;;;4.22;100.00;98514.81;5075075;28;20040;-80
2023/01/08 00:09:16;;;;;;;6.70;4.28;;;;;;;3.99;100.00;98482.25;5076332;28;20045;-79
2023/01/08 00:11:43;;;;;;;7.95;4.07;;;;;;;3.96;100.00;98487.97;5074185;28;20052;-79
2023/01/08 00:14:10;;;;;;;5.43;3.95;;;;;;;4.08;100.00;98477.78;5072333;28;20044;-80
2023/01/08 00:16:36;;;;;;;8.48;4.70;;;;;;;4.06;100.00;98466.31;5071230;28;20051;-80
2023/01/08 00:19:03;;;;;;;7.07;4.25;;;;;;;3.89;100.00;98455.47;5069175;28;20044;-80
2023/01/08 00:21:31;;;;;;;6.43;4.22;;;;;;;3.80;100.00;98461.81;5073330;28;20044;-80
2023/01/08 00:23:58;;;;;;;8.80;4.38;;;;;;;3.87;100.00;98472.78;5071827;28;20044;-80
2023/01/08 00:26:24;;;;;;;6.00;4.05;;;;;;;3.84;100.00;98460.50;5071709;28;20047;-80
2023/01/08 00:28:51;;;;;;;5.93;3.85;;;;;;;3.85;100.00;98450.56;5075442;28;20036;-80
2023/01/08 00:31:17;;;;;;;10.73;5.47;;;;;;;3.93;100.00;98469.44;5073971;28;20047;-80
2023/01/08 00:33:44;;;;;;;7.93;4.55;;;;;;;3.84;100.00;98459.63;5074447;28;20052;-80
2023/01/08 00:36:12;;;;;;;9.02;4.43;;;;;;;3.81;100.00;98441.97;5072576;28;20127;-80
2023/01/08 00:38:41;;;;;;;6.32;4.32;;;;;;;3.88;100.00;98463.69;5074767;28;20060;-80
2023/01/08 00:41:08;;;;;;;7.75;3.95;;;;;;;3.94;100.00;98465.75;5076990;28;20078;-80
2023/01/08 00:43:35;;;;;;;5.85;3.85;;;;;;;4.00;100.00;98459.72;5072276;28;20652;-80
2023/01/08 00:46:02;;;;;;;7.75;4.63;;;;;;;4.01;100.00;98452.50;5075199;28;20040;-80
2023/01/08 00:48:29;;;;;;;7.70;3.92;;;;;;;4.00;100.00;98440.06;5069887;28;20051;-80
2023/01/08 00:50:56;;;;;;;14.20;4.38;;;;;;;3.94;100.00;98424.56;5085627;28;20076;-80
2023/01/08 00:53:23;;;;;;;7.00;3.85;;;;;;;3.99;100.00;98419.53;5075480;28;20210;-80
2023/01/08 00:56:00;;;;;;;8.00;3.65;;;;;;;4.25;100.00;98433.78;5078076;28;20545;-80
2023/01/08 00:58:26;;;;;;;5.43;3.45;;;;;;;4.08;100.00;98405.97;5070879;28;20484;-80
2023/01/08 01:00:53;;;;;;;7.72;3.67;;;;;;;4.02;100.00;98414.69;5074732;28;20048;-80
2023/01/08 01:03:19;;;;;;;7.47;3.97;;;;;;;4.22;100.00;98422.50;5085287;28;20051;-80
2023/01/08 01:05:46;;;;;;;5.70;3.20;;;;;;;4.28;100.00;98421.03;5077830;28;20056;-80
2023/01/08 01:08:12;;;;;;;8.82;4.25;;;;;;;4.31;100.00;98426.06;5082635;28;20062;-80
2023/01/08 01:10:39;;;;;;;5.85;4.03;;;;;;;4.32;100.00;98419.66;5078679;28;20649;-80
2023/01/08 01:13:08;;;;;;;5.93;4.07;;;;;;;4.32;100.00;98430.44;5084456;28;20442;-80
2023/01/08 01:15:34;;;;;;;6.63;3.72;;;;;;;4.04;100.00;98388.47;5081266;28;20377;-80
2023/01/08 01:18:01;;;;;;;9.10;4.18;;;;;;;4.14;100.00;98417.94;5077259;28;20139;-80
2023/01/08 01:20:27;;;;;;;5.75;3.70;;;;;;;3.89;100.00;98385.53;5076387;28;20067;-79
2023/01/08 01:22:54;;;;;;;6.43;3.35;;;;;;;3.86;100.00;98385.03;5077459;28;20052;-80
2023/01/08 01:25:20;;;;;;;5.25;3.80;;;;;;;4.03;100.00;98405.59;5089954;28;20147;-80
2023/01/08 01:27:47;;;;;;;6.22;4.40;;;;;;;3.90;100.00;98389.94;5087088;28;20044;-80
2023/01/08 01:30:15;;;;;;;4.97;3.97;;;;;;;3.84;100.00;98392.41;5091360;28;20054;-80
2023/01/08 01:32:41;;;;;;;8.75;4.65;;;;;;;3.72;100.00;98387.31;5079101;28;20149;-80
2023/01/08 01:35:08;;;;;;;7.28;4.55;;;;;;;3.72;100.00;98416.91;5076656;28;20071;-80
2023/01/08 01:37:35;;;;;;;5.97;3.65;;;;;;;3.60;100.00;98414.63;5077589;28;20063;-80
2023/01/08 01:40:02;;;;;;;5.97;3.65;;;;;;;3.74;100.00;98423.97;5079243;28;20052;-80
2023/01/08 01:42:40;;;;;;;6.00;3.92;;;;;;;3.75;100.00;98396.06;5075428;28;20036;-80
2023/01/08 01:45:22;;;;;;;8.20;4.43;;;;;;;3.81;100.00;98396.28;5077887;28;20046;-80
2023/01/08 01:47:55;;;;;;;6.03;3.75;;;;;;;4.00;100.00;98414.00;5075349;28;20530;-81
2023/01/08 01:50:29;;;;;;;7.07;3.92;;;;;;;4.07;100.00;98435.72;5072204;28;20048;-80
2023/01/08 01:53:01;;;;;;;6.85;4.72;;;;;;;4.06;100.00;98426.81;5075312;28;21471;-80
2023/01/08 01:55:28;;;;;;;6.25;4.00;;;;;;;3.98;100.00;98418.69;5078415;28;20072;-80
2023/01/08 01:58:03;;;;;;;4.90;3.40;;;;;;;4.00;100.00;98418.53;5075843;28;20510;-80
2023/01/08 02:00:32;;;;;;;6.28;3.75;;;;;;;4.01;100.00;98404.94;5075767;28;20101;-79
2023/01/08 02:03:00;;;;;;;7.10;4.05;;;;;;;4.14;100.00;98426.00;5079254;28;20085;-80
2023/01/08 02:05:31;;;;;;;4.78;3.60;;;;;;;4.30;100.00;98425.22;5074462;28;20475;-80
2023/01/08 02:08:05;;;;;;;7.30;3.80;;;;;;;4.20;100.00;98402.97;5074327;28;20044;-80
2023/01/08 02:10:39;;;;;;;5.45;3.80;;;;;;;4.34;100.00;98412.28;5073828;28;20128;-80
2023/01/08 02:13:14;;;;;;;7.78;3.83;;;;;;;4.26;100.00;98380.81;5076746;28;20491;-79
2023/01/08 02:15:50;;;;;;;8.25;3.67;;;;;;;4.51;100.00;98405.09;5076323;28;20051;-80
2023/01/08 02:18:20;;;;;;;8.95;3.65;;;;;;;4.39;100.00;98370.41;5076210;28;20130;-80
2023/01/08 02:20:54;;;;;;;4.90;3.47;;;;;;;4.60;100.00;98386.09;5075639;28;20063;-80
2023/01/08 02:23:30;;;;;;;6.63;3.58;;;;;;;4.50;100.00;98363.88;5077159;28;20093;-80
2023/01/08 02:26:12;;;;;;;5.18;3.50;;;;;;;4.66;100.00;98381.91;5080193;28;20048;-80
2023/01/08 02:28:42;;;;;;;6.10;3.78;;;;;;;4.55;100.00;98358.00;5074140;28;20063;-80
2023/01/08 02:31:09;;;;;;;;;;;;;;;4.75;100.00;98380.06;5072754;28;21671;-80
2023/01/08 02:33:36;;;;;;;6.57;3.00;;;;;;;4.59;100.00;98354.81;5073493;28;19928;-81
2023/01/08 02:36:25;;;;;;;6.55;3.67;;;;;;;4.63;100.00;98349.91;5075646;28;20074;-81
2023/01/08 02:39:10;;;;;;;6.55;3.95;;;;;;;4.82;100.00;98366.75;5077755;28;20453;-81
2023/01/08 02:41:52;;;;;;;5.97;4.07;;;;;;;4.73;100.00;98330.94;5078124;28;20521;-81
2023/01/08 02:44:25;;;;;;;7.15;4.10;;;;;;;4.91;100.00;98346.91;5073064;28;20052;-81
2023/01/08 02:46:55;;;;;;;6.13;3.50;;;;;;;4.93;100.00;98337.63;5075773;28;20036;-81
2023/01/08 02:49:24;;;;;;;;;;;;;;;4.92;100.00;98343.19;5073905;28;20689;-78
2023/01/08 02:51:55;;;;;;;6.15;3.28;;;;;;;4.74;100.00;98328.06;5075518;28;20405;-78
2023/01/08 02:54:26;;;;;;;7.13;4.32;;;;;;;4.87;100.00;98335.63;5073098;28;20487;-78
2023/01/08 02:56:59;;;;;;;8.55;3.53;;;;;;;4.73;100.00;98306.69;5073482;28;20510;-78
2023/01/08 02:59:29;;;;;;;9.52;3.92;;;;;;;4.86;100.00;98323.16;5076613;28;20048;-79
2023/01/08 03:01:56;;;;;;;4.95;3.28;;;;;;;4.83;100.00;98314.59;5079304;28;20048;-81
2023/01/08 03:04:26;;;;;;;6.30;3.63;;;;;;;5.01;100.00;98322.50;5075547;28;20055;-81
2023/01/08 03:06:52;;;;;;;4.72;3.17;;;;;;;5.00;100.00;98310.88;5075936;28;20550;-81
2023/01/08 03:09:20;;;;;;;5.53;3.45;;;;;;;4.94;100.00;98280.06;5074524;28;20050;-81
2023/01/08 03:11:53;;;;;;;6.03;4.05;;;;;;;5.08;100.00;98308.16;5073528;28;20070;-81
2023/01/08 03:14:26;;;;;;;6.88;3.40;;;;;;;4.93;100.00;98304.47;5071858;28;20412;-81
2023/01/08 03:16:58;;;;;;;6.18;3.33;;;;;;;4.92;100.00;98284.81;5074736;28;20040;-81
2023/01/08 03:19:29;;;;;;;5.45;3.75;;;;;;;4.89;100.00;98289.66;5075099;28;20048;-81
2023/01/08 03:21:57;;;;;;;5.18;3.40;;;;;;;4.91;100.00;98276.91;5075804;28;20058;-81
2023/01/08 03:24:28;;;;;;;6.30;4.10;;;;;;;4.94;100.00;98288.16;5074869;28;20127;-82
2023/01/08 03:26:58;;;;;;;10.65;3.65;;;;;;;5.00;100.00;98293.84;5073661;28;20441;-81
2023/01/08 03:29:27;;;;;;;6.57;3.85;;;;;;;4.95;100.00;98284.47;5073405;28;20301;-81
2023/01/08 03:31:58;;;;;;;5.57;3.63;;;;;;;5.02;100.00;98299.94;5085449;28;20127;-80
2023/01/08 03:34:27;;;;;;;6.00;3.50;;;;;;;5.02;100.00;98303.47;5087716;28;20495;-81
2023/01/08 03:36:57;;;;;;;7.15;3.78;;;;;;;4.96;100.00;98287.97;5079174;28;20047;-79
2023/01/08 03:39:25;;;;;;;;;;;;;;;5.17;100.00;98297.38;5085241;28;20052;-78
2023/01/08 03:41:57;;;;;;;7.35;3.15;;;;;;;5.15;100.00;98297.56;5080135;28;19927;-80
2023/01/08 03:44:25;;;;;;;7.43;3.30;;;;;;;5.27;100.00;98287.25;5082120;28;20048;-79
2023/01/08 03:46:55;;;;;;;6.65;3.55;;;;;;;5.11;100.00;98271.97;5084392;28;20048;-80
2023/01/08 03:49:24;;;;;;;5.47;3.00;;;;;;;5.20;100.00;98281.69;5079122;28;20079;-79
2023/01/08 03:51:51;;;;;;;4.60;2.95;;;;;;;5.23;100.00;98269.75;5083505;28;20503;-80
2023/01/08 03:54:20;;;;;;;5.35;3.70;;;;;;;5.30;100.00;98278.84;5083189;28;20046;-79
2023/01/08 03:56:47;;;;;;;5.55;3.08;;;;;;;5.33;100.00;98275.78;5078692;28;20051;-79
2023/01/08 03:59:14;;;;;;;5.32;3.65;;;;;;;5.29;100.00;98271.75;5078960;28;20044;-79
2023/01/08 04:01:43;;;;;;;5.55;2.85;;;;;;;5.06;100.00;98250.06;5085784;28;20048;-79
2023/01/08 04:04:11;;;;;;;6.63;2.95;;;;;;;5.32;100.00;98264.16;5078263;28;20040;-79
2023/01/08 04:06:37;;;;;;;4.68;2.78;;;;;;;5.38;100.00;98251.00;5089098;28;20483;-80
2023/01/08 04:09:04;;;;;;;6.63;3.35;;;;;;;5.57;100.00;98266.78;5079431;28;20040;-80
2023/01/08 04:11:31;;;;;;;6.78;3.22;;;;;;;5.49;99.22;98239.81;5081053;28;20052;-80
2023/01/08 04:13:58;;;;;;;6.07;2.95;;;;;;;5.52;98.53;98234.09;5087662;28;20466;-79
2023/01/08 04:16:24;;;;;;;6.80;3.92;;;;;;;5.58;98.65;98249.56;5085279;28;20037;-80
2023/01/08 04:18:52;;;;;;;6.00;3.35;;;;;;;5.50;98.08;98233.44;5083281;28;20527;-80
2023/01/08 04:21:19;;;;;;;6.15;3.28;;;;;;;5.72;98.71;98250.69;5076346;28;20050;-79
2023/01/08 04:23:45;;;;;;;6.55;2.67;;;;;;;5.63;98.26;98238.25;5075218;28;20044;-80
2023/01/08 04:26:12;;;;;;;7.72;2.95;;;;;;;5.75;98.67;98254.88;5081089;28;20051;-79
2023/01/08 04:28:38;;;;;;;4.82;2.78;;;;;;;5.66;97.43;98227.09;5072626;28;20040;-80
2023/01/08 04:31:06;;;;;;;5.10;3.08;;;;;;;5.69;97.38;98234.88;5086119;28;20058;-80
2023/01/08 04:33:36;;;;;;;6.40;3.38;;;;;;;5.82;97.40;98242.38;5079210;28;20048;-80
2023/01/08 04:36:05;;;;;;;4.93;3.25;;;;;;;5.70;97.88;98227.59;5083068;28;20057;-79
2023/01/08 04:38:31;;;;;;;5.90;2.75;;;;;;;5.58;98.67;98213.69;5081081;28;20044;-79
2023/01/08 04:40:59;;;;;;;4.13;2.67;;;;;;;5.59;98.83;98240.47;5084989;28;20056;-79
2023/01/08 04:43:26;;;;;;;8.05;2.92;;;;;;;5.67;99.52;98258.44;5079042;28;20051;-79
2023/01/08 04:45:52;;;;;;;5.30;2.75;;;;;;;5.55;100.00;98238.28;5082616;28;20048;-79
2023/01/08 04:48:19;;;;;;;5.47;3.08;;;;;;;5.59;100.00;98262.03;5086162;28;20036;-79
2023/01/08 04:50:45;;;;;;;4.28;2.70;;;;;;;5.42;100.00;98236.16;5078339;28;20040;-80
2023/01/08 04:53:13;;;;;;;6.00;3.00;;;;;;;5.52;100.00;98257.53;5083653;28;20053;-80
2023/01/08 04:55:43;;;;;;;3.80;2.67;;;;;;;5.47;100.00;98244.56;5076405;28;20063;-79
2023/01/08 04:58:09;;;;;;;5.43;2.85;;;;;;;5.47;100.00;98266.97;5084125;28;20053;-80
2023/01/08 05:00:38;;;;;;;3.97;3.00;;;;;;;5.52;100.00;98285.31;5082933;28;20051;-80
2023/01/08 05:03:05;;;;;;;5.82;2.88;;;;;;;5.48;100.00;98270.53;5082606;28;20052;-79
2023/01/08 05:05:32;;;;;;;6.93;3.38;;;;;;;5.23;100.00;98248.19;5086438;28;20059;-80
2023/01/08 05:07:59;;;;;;;5.93;3.72;;;;;;;5.32;100.00;98279.47;5081383;28;20066;-80
2023/01/08 05:10:27;;;;;;;5.80;3.20;;;;;;;5.30;100.00;98263.50;5084419;28;20048;-80
2023/01/08 05:12:58;;;;;;;5.68;3.50;;;;;;;5.17;100.00;98257.81;5081967;28;20523;-80
2023/01/08 05:15:25;;;;;;;5.45;3.15;;;;;;;5.16;100.00;98263.38;5086895;28;20102;-80
2023/01/08 05:17:58;;;;;;;5.63;2.92;;;;;;;5.34;100.00;98273.91;5084985;28;20134;-80
2023/01/08 05:20:25;;;;;;;4.28;3.13;;;;;;;5.27;100.00;98280.00;5083708;28;20042;-80
2023/01/08 05:22:51;;;;;;;6.40;3.55;;;;;;;5.20;100.00;98252.06;5084584;28;20043;-80
2023/01/08 05:25:18;;;;;;;5.00;2.92;;;;;;;5.29;100.00;98280.66;5087946;28;20056;-80
2023/01/08 05:27:46;;;;;;;4.25;3.13;;;;;;;5.33;100.00;98289.25;5085559;28;20047;-80
2023/01/08 05:30:13;;;;;;;5.18;3.10;;;;;;;5.34;100.00;98295.47;5083944;28;20078;-80
2023/01/08 05:32:40;;;;;;;4.97;3.40;;;;;;;5.23;100.00;98294.84;5081074;28;20051;-80
2023/01/08 05:35:07;;;;;;;5.45;3.33;;;;;;;5.33;100.00;98294.66;5081850;28;20044;-80
2023/01/08 05:37:34;;;;;;;7.13;3.42;;;;;;;5.42;100.00;98301.69;5089926;28;20473;-80
2023/01/08 05:40:01;;;;;;;7.90;3.53;;;;;;;5.38;100.00;98291.44;5083374;28;20520;-80
2023/01/08 05:42:27;;;;;;;6.60;3.42;;;;;;;5.46;100.00;98294.91;5071771;28;20044;-80
2023/01/08 05:44:55;;;;;;;8.48;4.40;;;;;;;5.53;100.00;98287.00;5083932;28;20052;-80
2023/01/08 05:47:22;;;;;;;5.82;3.25;;;;;;;5.39;100.00;98267.00;5089470;28;20487;-80
2023/01/08 05:49:48;;;;;;;6.43;3.80;;;;;;;5.29;100.00;98269.06;5082644;28;20059;-80
2023/01/08 05:52:15;;;;;;;6.82;3.70;;;;;;;5.40;100.00;98279.44;5085289;28;20044;-80
2023/01/08 05:54:41;;;;;;;7.20;3.40;;;;;;;5.34;100.00;98276.63;5087099;28;20047;-80
2023/01/08 05:57:08;;;;;;;5.50;3.75;;;;;;;5.27;100.00;98271.09;5092141;28;20052;-80
2023/01/08 05:59:34;;;;;;;6.47;3.90;;;;;;;5.40;100.00;98284.00;5089242;28;20439;-80
2023/01/08 06:02:02;;;;;;;8.75;3.75;;;;;;;5.25;100.00;98273.94;5090936;28;20083;-80
2023/01/08 06:04:29;;;;;;;5.72;3.45;;;;;;;5.39;100.00;98276.94;5080122;28;20036;-80
2023/01/08 06:06:55;;;;;;;8.50;2.83;;;;;;;5.52;100.00;98296.09;5085583;28;20041;-80
2023/01/08 06:09:22;;;;;;;3.60;2.63;;;;;;;5.58;100.00;98298.09;5092225;28;20040;-80
2023/01/08 06:11:48;;;;;;;4.53;2.60;;;;;;;5.52;100.00;98269.13;5090312;28;20040;-80
2023/01/08 06:14:15;;;;;;;4.25;2.28;;;;;;;5.66;100.00;98270.25;5085213;28;20051;-80
2023/01/08 06:16:43;;;;;;;3.67;2.25;;;;;;;5.68;100.00;98268.22;5091392;28;20098;-80
2023/01/08 06:19:12;;;;;;;6.75;2.30;;;;;;;5.79;100.00;98264.31;5079376;28;20082;-80
2023/01/08 06:21:38;;;;;;;6.10;2.07;;;;;;;5.81;100.00;98271.22;5089554;28;20121;-80
2023/01/08 06:24:05;;;;;;;3.92;1.88;;;;;;;5.96;100.00;98275.84;5091283;28;20126;-80
2023/01/08 06:26:32;;;;;;;2.80;2.08;;;;;;;5.89;100.00;98256.84;5091638;28;20040;-80
2023/01/08 06:28:59;;;;;;;3.25;2.47;;;;;;;5.98;100.00;98265.75;5090382;28;20044;-80
2023/01/08 06:31:25;;;;;;;38.25;14.80;;;;;;;5.94;100.00;98250.91;5086379;28;20498;-81
2023/01/08 06:33:52;;;;;;;24.75;9.73;;;;;;;5.89;100.00;98242.50;5074289;28;20052;-81
2023/01/08 06:36:19;;;;;;;6.28;2.72;;;;;;;6.05;100.00;98260.47;5084034;28;20435;-80
2023/01/08 06:38:46;;;;;;;7.18;2.88;;;;;;;6.06;100.00;98260.31;5091962;28;20052;-81
2023/01/08 06:41:13;;;;;;;4.70;1.92;;;;;;;6.04;100.00;98240.75;5086562;28;20055;-81
2023/01/08 06:43:39;;;;;;;1.30;1.05;;;;;;;6.13;100.00;98249.66;5086894;28;20052;-80
2023/01/08 06:46:07;;;;;;;2.35;1.67;;;;;;;6.09;100.00;98240.22;5089335;28;20066;-81
2023/01/08 06:48:34;;;;;;;4.05;2.03;;;;;;;6.06;100.00;98238.72;5081433;28;20052;-80
2023/01/08 06:51:02;;;;;;;1.27;1.08;;;;;;;6.16;100.00;98252.00;5080715;28;20044;-80
2023/01/08 06:53:30;;;;;;;1.95;1.33;;;;;;;6.28;100.00;98261.34;5091822;28;20040;-80
2023/01/08 06:55:57;;;;;;;2.58;1.38;;;;;;;6.18;100.00;98248.06;5090784;28;20048;-81
2023/01/08 06:58:24;;;;;;;1.90;1.63;;;;;;;6.13;100.00;98249.66;5092281;28;20040;-80
2023/01/08 07:00:50;;;;;;;21.55;9.25;;;;;;;6.08;100.00;98246.63;5088264;28;20052;-81
2023/01/08 07:03:20;;;;;;;8.50;3.10;;;;;;;6.07;100.00;98245.78;5085373;28;20051;-80
2023/01/08 07:05:49;;;;;;;1.52;1.40;;;;;;;6.06;100.00;98240.59;5084636;28;20048;-80
2023/01/08 07:08:16;;;;;;;3.03;1.90;;;;;;;6.18;100.00;98248.06;5083210;28;20085;-80
2023/01/08 07:10:45;;;;;;;1.77;1.38;;;;;;;6.24;100.00;98245.69;5087818;28;20070;-80
2023/01/08 07:13:12;;;;;;;2.05;1.23;;;;;;;6.34;100.00;98251.69;5080187;28;20075;-80
2023/01/08 07:15:39;;;;;;;1.95;1.30;;;;;;;6.19;100.00;98228.16;5088047;28;20453;-80
2023/01/08 07:18:06;;;;;;;2.50;1.52;;;;;;;6.20;100.00;98239.78;5091292;28;20389;-80
2023/01/08 07:20:33;;;;;;;3.67;1.27;;;;;;;6.29;100.00;98263.03;5074323;28;20407;-80
2023/01/08 07:23:02;;;;;;;4.57;1.45;;;;;;;6.09;100.00;98232.97;5089060;28;20059;-80
2023/01/08 07:25:28;;;;;;;2.80;1.52;;;;;;;6.32;100.00;98259.13;5090048;28;20058;-80
2023/01/08 07:27:57;;;;;;;2.10;1.48;;;;;;;6.24;100.00;98256.47;5091422;28;20048;-80
2023/01/08 07:30:23;;;;;;;1.85;1.23;;;;;;;6.26;100.00;98251.75;5085097;28;20047;-80
2023/01/08 07:32:50;;;;;;;1.67;1.38;;;;;;;6.15;100.00;98234.09;5090841;28;20051;-80
2023/01/08 07:35:16;;;;;;;5.47;1.52;;;;;;;6.28;100.00;98253.25;5087758;28;20044;-80
2023/01/08 07:37:43;;;;;;;13.50;7.35;;;;;;;6.27;100.00;98240.75;5091484;28;20048;-80
2023/01/08 07:40:12;;;;;;;5.28;3.50;;;;;;;6.29;100.00;98259.47;5085081;28;20035;-80
2023/01/08 07:42:39;;;;;;;3.80;1.70;;;;;;;6.22;100.00;98262.06;5088949;28;20058;-80
2023/01/08 07:45:08;;;;;;;2.97;1.50;;;;;;;6.12;100.00;98262.28;5085597;28;20230;-80
2023/01/08 07:47:34;;;;;;;2.60;2.00;;;;;;;6.20;100.00;98254.16;5077325;28;20044;-80
2023/01/08 07:50:01;;;;;;;2.90;1.60;;;;;;;6.16;100.00;98252.81;5078000;28;20055;-80
2023/01/08 07:52:27;;;;;;;4.47;2.40;;;;;;;6.39;100.00;98262.78;5089253;28;20050;-80
2023/01/08 07:54:54;;;;;;;4.63;1.88;;;;;;;6.39;100.00;98265.47;5084699;28;20044;-80
2023/01/08 07:57:23;;;;;;;2.00;1.80;;;;;;;6.36;100.00;98244.25;5072336;28;20495;-79
2023/01/08 07:59:50;;;;;;;3.65;1.80;;;;;;;6.43;100.00;98253.31;5071740;28;20503;-79
2023/01/08 08:02:18;;;;;;;3.17;1.70;;;;;;;6.44;100.00;98251.44;5085699;28;20047;-79
2023/01/08 08:04:44;;;;;;;2.90;1.83;;;;;;;6.44;100.00;98252.25;5085516;28;20071;-79
2023/01/08 08:07:11;;;;;;;1.92;1.38;;;;;;;6.38;100.00;98243.06;5081684;28;20056;-77
2023/01/08 08:09:37;;;;;;;3.08;1.42;;;;;;;6.54;100.00;98263.66;5079413;28;20113;-77
2023/01/08 08:12:04;;;;;;;1.70;1.45;;;;;;;6.50;100.00;98254.28;5087868;28;20050;-77
2023/01/08 08:14:31;;;;;;;1.88;1.52;;;;;;;6.52;100.00;98262.19;5092422;28;20048;-76
2023/01/08 08:16:57;;;;;;;7.05;1.40;;;;;;;6.47;100.00;98256.47;5091691;28;20495;-76
2023/01/08 08:19:25;;;;;;;1.10;1.00;;;;;;;6.31;100.00;98236.69;5084534;28;20050;-78
2023/01/08 08:21:51;;;;;;;3.05;1.40;;;;;;;6.30;100.00;98224.19;5082274;28;20052;-80
2023/01/08 08:24:18;;;;;;;1.13;1.02;;;;;;;6.48;100.00;98261.69;5086641;28;20048;-80
2023/01/08 08:26:45;;;;;;;1.73;1.20;;;;;;;6.43;100.00;98241.66;5090451;28;20502;-80
2023/01/08 08:29:11;;;;;;;1.73;1.20;;;;;;;6.60;100.00;98262.09;5087396;28;20036;-77
2023/01/08 08:31:37;;;;;;;2.00;1.30;;;;;;;6.63;100.00;98255.50;5079899;28;20044;-78
2023/01/08 08:34:05;;;;;;;1.85;1.30;;;;;;;6.58;100.00;98253.34;5077301;28;20052;-78
2023/01/08 08:36:51;;;;;;;2.10;1.08;;;;;;;6.56;100.00;98247.28;5070967;28;20051;-79
2023/01/08 08:39:18;;;;;;;1.48;1.10;;;;;;;6.50;100.00;98237.22;5078890;28;20048;-78
2023/01/08 08:41:44;;;;;;;1.95;1.27;;;;;;;6.45;100.00;98234.22;5088127;28;20051;-78
2023/01/08 08:44:11;;;;;;;1.90;1.20;;;;;;;6.53;100.00;98236.84;5091080;28;20142;-78
2023/01/08 08:46:37;;;;;;;7.47;2.67;;;;;;;6.44;100.00;98221.75;5090693;28;20380;-78
2023/01/08 08:49:04;;;;;;;2.17;1.20;;;;;;;6.57;100.00;98229.22;5091840;28;20040;-78
2023/01/08 08:51:30;;;;;;;1.60;1.15;;;;;;;6.53;100.00;98220.63;5092099;28;20055;-78
2023/01/08 08:53:58;;;;;;;1.85;1.20;;;;;;;6.58;100.00;98226.34;5091856;28;20054;-78
2023/01/08 08:56:27;;;;;;;2.17;1.30;;;;;;;6.75;100.00;98239.72;5091449;28;20070;-78
2023/01/08 08:58:57;;;;;;;1.55;1.15;;;;;;;6.64;100.00;98220.22;5091034;28;20482;-78
2023/01/08 09:01:24;;;;;;;3.35;1.08;;;;;;;6.75;100.00;98231.59;5090351;28;20052;-78
2023/01/08 09:03:51;;;;;;;1.65;1.15;;;;;;;6.63;100.00;98210.44;5091717;28;20062;-79
2023/01/08 09:06:17;;;;;;;2.10;1.20;;;;;;;6.73;100.00;98234.50;5082032;28;20059;-79
2023/01/08 09:08:44;;;;;;;4.57;1.08;;;;;;;6.60;100.00;98205.41;5089508;28;20048;-79
2023/01/08 09:11:12;;;;;;;2.80;1.00;;;;;;;6.63;100.00;98223.94;5085104;28;20083;-79
2023/01/08 09:13:38;;;;;;;1.10;1.00;;;;;;;6.79;100.00;98227.50;5086996;28;20052;-79
2023/01/08 09:16:05;;;;;;;1.40;0.98;;;;;;;6.72;100.00;98211.19;5079609;28;20047;-79
2023/01/08 09:18:32;;;;;;;1.98;1.13;;;;;;;6.65;100.00;98219.16;5090772;28;20044;-79
2023/01/08 09:20:58;;;;;;;1.95;1.08;;;;;;;6.76;100.00;98236.81;5085279;28;20131;-79
2023/01/08 09:23:28;;;;;;;2.58;1.52;;;;;;;6.78;100.00;98226.66;5084242;28;20048;-79
2023/01/08 09:25:59;;;;;;;1.50;1.00;;;;;;;6.82;100.00;98230.69;5088792;28;20050;-79
2023/01/08 09:28:27;;;;;;;2.10;1.27;;;;;;;6.63;100.00;98198.78;5086979;28;20144;-79
2023/01/08 09:30:53;;;;;;;2.15;1.35;;;;;;;6.72;100.00;98213.91;5087238;28;20507;-79
2023/01/08 09:33:21;;;;;;;1.67;1.13;;;;;;;6.76;100.00;98219.75;5089958;28;20067;-79
2023/01/08 09:35:47;;;;;;;4.18;1.20;;;;;;;6.83;100.00;98226.13;5093819;28;20054;-79
2023/01/08 09:38:14;;;;;;;2.97;1.25;;;;;;;6.81;100.00;98225.47;5093632;28;20047;-79
2023/01/08 09:40:47;;;;;;;1.67;1.00;;;;;;;6.78;100.00;98212.34;5088744;28;20495;-80
2023/01/08 09:43:18;;;;;;;2.28;1.02;;;;;;;6.87;100.00;98222.03;5086743;28;20126;-80
2023/01/08 09:45:50;;;;;;;2.15;1.15;;;;;;;6.90;100.00;98214.38;5087629;28;20044;-79
2023/01/08 09:48:19;;;;;;;2.50;1.48;;;;;;;6.83;100.00;98204.50;5089923;28;20041;-79
2023/01/08 09:50:47;;;;;;;2.72;1.13;;;;;;;6.88;100.00;98202.94;5084125;28;20044;-79
2023/01/08 09:53:16;;;;;;;2.30;1.30;;;;;;;6.93;100.00;98210.47;5079397;28;20048;-79
2023/01/08 09:55:43;;;;;;;1.17;1.08;;;;;;;6.99;100.00;98212.44;5086118;28;20044;-80
2023/01/08 09:58:22;;;;;;;3.13;1.15;;;;;;;6.84;100.00;98198.09;5093137;28;20083;-79
2023/01/08 10:00:50;;;;;;;1.92;1.15;;;;;;;6.96;100.00;98207.41;5082577;28;20055;-80
2023/01/08 10:03:17;;;;;;;1.75;1.15;;;;;;;7.08;100.00;98216.72;5089597;28;20040;-78
2023/01/08 10:05:43;;;;;;;2.75;1.20;;;;;;;6.99;100.00;98190.81;5088833;28;20052;-79
2023/01/08 10:08:13;;;;;;;2.30;1.25;;;;;;;7.08;100.00;98205.09;5095662;28;20051;-79
2023/01/08 10:10:41;;;;;;;8.75;3.08;;;;;;;7.13;100.00;98205.34;5088302;28;20051;-79
2023/01/08 10:13:11;;;;;;;3.03;1.50;;;;;;;7.15;100.00;98208.72;5091160;28;20056;-79
2023/01/08 10:15:39;;;;;;;2.28;1.40;;;;;;;7.19;100.00;98215.41;5083769;28;20063;-79
2023/01/08 10:18:12;;;;;;;1.35;1.10;;;;;;;7.25;100.00;98222.78;5084115;28;20048;-79
2023/01/08 10:20:39;;;;;;;1.85;1.20;;;;;;;7.23;100.00;98218.59;5091030;28;20560;-79
2023/01/08 10:23:11;;;;;;;3.28;1.23;;;;;;;7.25;100.00;98216.53;5086241;28;20041;-79
2023/01/08 10:25:52;;;;;;;1.20;1.10;;;;;;;7.11;100.00;98188.50;5092077;28;20048;-79
2023/01/08 10:28:21;;;;;;;2.40;1.10;;;;;;;7.29;100.00;98208.88;5073343;28;20047;-79
2023/01/08 10:30:50;;;;;;;1.60;1.00;;;;;;;7.16;100.00;98185.22;5088565;28;20040;-79
2023/01/08 10:33:23;;;;;;;2.28;1.00;;;;;;;7.30;100.00;98207.88;5091995;28;20056;-79
2023/01/08 10:35:55;;;;;;;2.20;0.75;;;;;;;7.27;100.00;98187.44;5090235;28;20050;-79
2023/01/08 10:38:29;;;;;;;3.50;0.90;;;;;;;7.25;100.00;98186.81;5092291;28;20052;-79
2023/01/08 10:40:57;;;;;;;1.05;0.80;;;;;;;7.27;100.00;98173.94;5089216;28;20381;-79
2023/01/08 10:43:28;;;;;;;2.42;1.17;;;;;;;7.42;100.00;98185.59;5087607;28;20040;-79
2023/01/08 10:45:58;;;;;;;5.47;1.15;;;;;;;7.35;100.00;98189.25;5089406;28;20239;-79
2023/01/08 10:48:32;;;;;;;2.33;1.50;;;;;;;7.47;100.00;98173.34;5089609;28;20032;-79
2023/01/08 10:51:14;;;;;;;1.35;1.13;;;;;;;7.44;100.00;98152.94;5085993;28;20075;-79
2023/01/08 10:53:41;;;;;;;2.13;1.23;;;;;;;7.59;100.00;98182.66;5085020;28;20110;-79
2023/01/08 10:56:19;;;;;;;4.43;1.42;;;;;;;7.61;100.00;98172.50;5090715;28;20063;-79
2023/01/08 10:58:46;;;;;;;2.20;0.93;;;;;;;7.57;100.00;98161.22;5097194;28;20503;-81
2023/01/08 11:01:17;;;;;;;2.78;1.40;;;;;;;7.63;100.00;98156.91;5087442;28;20040;-80
2023/01/08 11:03:49;;;;;;;3.05;1.30;;;;;;;7.56;100.00;98159.53;5088515;28;20515;-80
2023/01/08 11:06:22;;;;;;;3.10;1.13;;;;;;;7.62;100.00;98164.19;5086010;28;20050;-80
2023/01/08 11:08:51;;;;;;;2.65;1.15;;;;;;;7.60;100.00;98155.44;5084209;28;20055;-80
2023/01/08 11:11:18;;;;;;;2.78;1.05;;;;;;;7.65;100.00;98160.25;5081392;28;20040;-80
2023/01/08 11:13:57;;;;;;;1.13;1.02;;;;;;;7.71;100.00;98166.78;5088582;28;20047;-80
2023/01/08 11:16:31;;;;;;;1.13;1.00;;;;;;;7.73;100.00;98160.13;5076279;28;20046;-80
2023/01/08 11:18:59;;;;;;;1.90;1.30;;;;;;;7.82;100.00;98170.84;5089508;28;20064;-80
2023/01/08 11:21:29;;;;;;;4.13;1.65;;;;;;;7.70;100.00;98154.28;5089487;28;20071;-81
2023/01/08 11:24:15;;;;;;;1.98;1.52;;;;;;;7.78;100.00;98155.00;5086699;28;20460;-80
2023/01/08 11:26:45;;;;;;;2.42;1.33;;;;;;;7.80;100.00;98152.94;5091415;28;20488;-80
2023/01/08 11:29:16;;;;;;;2.13;1.40;;;;;;;7.79;100.00;98143.13;5084707;28;20411;-80
2023/01/08 11:31:50;;;;;;;3.40;1.13;;;;;;;7.88;100.00;98140.31;5087346;28;20048;-80
2023/01/08 11:34:26;;;;;;;3.13;1.42;;;;;;;7.90;100.00;98136.41;5074453;28;20044;-80
2023/01/08 11:36:56;;;;;;;3.35;1.77;;;;;;;7.77;100.00;98111.91;5082241;28;20059;-80
2023/01/08 11:39:23;;;;;;;2.22;1.25;;;;;;;7.94;100.00;98137.66;5083611;28;20415;-80
2023/01/08 11:42:13;;;;;;;1.77;1.20;;;;;;;8.09;100.00;98140.31;5087970;28;20479;-80